sensor_id;sensor_type;location;lat;lon;timestamp;P1;durP1;ratioP1;P2;durP2;ratioP2
67528;SDS011;54366;51.980;5.856;2024-01-06T00:00:24;16.50;;;14.02;;
67528;SDS011;54366;51.980;5.856;2024-01-06T00:02:50;15.90;;;13.77;;
67528;SDS011;54366;51.980;5.856;2024-01-06T00:05:17;15.93;;;13.48;;
67528;SDS011;54366;51.980;5.856;2024-01-06T00:07:43;14.48;;;12.52;;
67528;SDS011;54366;51.980;5.856;2024-01-06T00:10:09;14.00;;;12.05;;
67528;SDS011;54366;51.980;5.856;2024-01-06T00:12:36;15.00;;;12.55;;
67528;SDS011;54366;51.980;5.856;2024-01-06T00:15:02;16.02;;;13.00;;
67528;SDS011;54366;51.980;5.856;2024-01-06T00:17:29;15.95;;;13.57;;
67528;SDS011;54366;51.980;5.856;2024-01-06T00:19:56;14.63;;;12.80;;
67528;SDS011;54366;51.980;5.856;2024-01-06T00:22:22;13.82;;;11.07;;
67528;SDS011;54366;51.980;5.856;2024-01-06T00:24:49;13.55;;;11.82;;
67528;SDS011;54366;51.980;5.856;2024-01-06T00:27:15;15.43;;;12.40;;
67528;SDS011;54366;51.980;5.856;2024-01-06T00:29:42;15.57;;;13.18;;
67528;SDS011;54366;51.980;5.856;2024-01-06T00:32:08;14.23;;;11.90;;
67528;SDS011;54366;51.980;5.856;2024-01-06T00:34:34;15.45;;;12.48;;
67528;SDS011;54366;51.980;5.856;2024-01-06T00:37:01;15.18;;;12.45;;
67528;SDS011;54366;51.980;5.856;2024-01-06T00:39:27;12.45;;;10.75;;
67528;SDS011;54366;51.980;5.856;2024-01-06T00:41:53;13.48;;;11.05;;
67528;SDS011;54366;51.980;5.856;2024-01-06T00:44:20;13.43;;;11.10;;
67528;SDS011;54366;51.980;5.856;2024-01-06T00:46:46;14.02;;;10.95;;
67528;SDS011;54366;51.980;5.856;2024-01-06T00:49:12;13.02;;;11.18;;
67528;SDS011;54366;51.980;5.856;2024-01-06T00:51:38;12.43;;;11.00;;
67528;SDS011;54366;51.980;5.856;2024-01-06T00:54:05;12.10;;;10.80;;
67528;SDS011;54366;51.980;5.856;2024-01-06T00:56:31;13.90;;;11.13;;
67528;SDS011;54366;51.980;5.856;2024-01-06T00:58:57;12.63;;;10.55;;
67528;SDS011;54366;51.980;5.856;2024-01-06T01:01:24;11.52;;;10.23;;
67528;SDS011;54366;51.980;5.856;2024-01-06T01:03:50;10.70;;;9.45;;
67528;SDS011;54366;51.980;5.856;2024-01-06T01:06:16;10.27;;;9.05;;
67528;SDS011;54366;51.980;5.856;2024-01-06T01:08:43;10.35;;;9.20;;
67528;SDS011;54366;51.980;5.856;2024-01-06T01:11:09;11.05;;;9.63;;
67528;SDS011;54366;51.980;5.856;2024-01-06T01:13:35;12.57;;;10.45;;
67528;SDS011;54366;51.980;5.856;2024-01-06T01:16:02;13.32;;;11.55;;
67528;SDS011;54366;51.980;5.856;2024-01-06T01:18:28;12.93;;;10.85;;
67528;SDS011;54366;51.980;5.856;2024-01-06T01:20:55;12.48;;;10.93;;
67528;SDS011;54366;51.980;5.856;2024-01-06T01:23:21;11.05;;;9.63;;
67528;SDS011;54366;51.980;5.856;2024-01-06T01:25:47;13.75;;;11.95;;
67528;SDS011;54366;51.980;5.856;2024-01-06T01:28:14;12.65;;;10.20;;
67528;SDS011;54366;51.980;5.856;2024-01-06T01:30:40;11.13;;;9.90;;
67528;SDS011;54366;51.980;5.856;2024-01-06T01:33:06;12.93;;;11.48;;
67528;SDS011;54366;51.980;5.856;2024-01-06T01:35:33;13.23;;;11.82;;
67528;SDS011;54366;51.980;5.856;2024-01-06T01:37:59;14.40;;;11.60;;
67528;SDS011;54366;51.980;5.856;2024-01-06T01:40:26;13.95;;;11.55;;
67528;SDS011;54366;51.980;5.856;2024-01-06T01:42:52;12.48;;;10.95;;
67528;SDS011;54366;51.980;5.856;2024-01-06T01:45:18;13.05;;;11.65;;
67528;SDS011;54366;51.980;5.856;2024-01-06T01:47:45;13.52;;;11.70;;
67528;SDS011;54366;51.980;5.856;2024-01-06T01:50:11;13.27;;;11.88;;
67528;SDS011;54366;51.980;5.856;2024-01-06T01:52:40;12.90;;;11.27;;
67528;SDS011;54366;51.980;5.856;2024-01-06T01:55:07;10.57;;;9.27;;
67528;SDS011;54366;51.980;5.856;2024-01-06T01:57:33;10.50;;;9.40;;
67528;SDS011;54366;51.980;5.856;2024-01-06T02:00:00;14.50;;;12.07;;
67528;SDS011;54366;51.980;5.856;2024-01-06T02:02:37;12.70;;;10.77;;
67528;SDS011;54366;51.980;5.856;2024-01-06T02:05:04;13.13;;;11.73;;
67528;SDS011;54366;51.980;5.856;2024-01-06T02:07:30;15.10;;;12.35;;
67528;SDS011;54366;51.980;5.856;2024-01-06T02:09:57;14.77;;;12.00;;
67528;SDS011;54366;51.980;5.856;2024-01-06T02:12:23;15.82;;;12.98;;
67528;SDS011;54366;51.980;5.856;2024-01-06T02:14:49;15.35;;;12.65;;
67528;SDS011;54366;51.980;5.856;2024-01-06T02:17:15;15.43;;;12.20;;
67528;SDS011;54366;51.980;5.856;2024-01-06T02:19:42;16.10;;;13.18;;
67528;SDS011;54366;51.980;5.856;2024-01-06T02:22:08;18.77;;;14.52;;
67528;SDS011;54366;51.980;5.856;2024-01-06T02:24:35;18.38;;;15.02;;
67528;SDS011;54366;51.980;5.856;2024-01-06T02:27:01;22.05;;;16.98;;
67528;SDS011;54366;51.980;5.856;2024-01-06T02:29:27;21.02;;;16.30;;
67528;SDS011;54366;51.980;5.856;2024-01-06T02:31:53;22.00;;;17.70;;
67528;SDS011;54366;51.980;5.856;2024-01-06T02:34:20;23.15;;;17.13;;
67528;SDS011;54366;51.980;5.856;2024-01-06T02:36:46;19.88;;;15.90;;
67528;SDS011;54366;51.980;5.856;2024-01-06T02:39:12;20.10;;;16.60;;
67528;SDS011;54366;51.980;5.856;2024-01-06T02:41:39;23.30;;;17.98;;
67528;SDS011;54366;51.980;5.856;2024-01-06T02:44:05;23.45;;;17.48;;
67528;SDS011;54366;51.980;5.856;2024-01-06T02:46:31;21.63;;;16.15;;
67528;SDS011;54366;51.980;5.856;2024-01-06T02:48:58;23.38;;;17.98;;
67528;SDS011;54366;51.980;5.856;2024-01-06T02:51:24;25.55;;;19.25;;
67528;SDS011;54366;51.980;5.856;2024-01-06T02:53:50;26.58;;;20.15;;
67528;SDS011;54366;51.980;5.856;2024-01-06T02:56:16;22.20;;;17.40;;
67528;SDS011;54366;51.980;5.856;2024-01-06T02:58:43;23.77;;;18.38;;
67528;SDS011;54366;51.980;5.856;2024-01-06T03:01:10;23.95;;;17.63;;
67528;SDS011;54366;51.980;5.856;2024-01-06T03:03:37;25.00;;;19.27;;
67528;SDS011;54366;51.980;5.856;2024-01-06T03:06:03;24.67;;;18.58;;
67528;SDS011;54366;51.980;5.856;2024-01-06T03:08:30;22.67;;;18.02;;
67528;SDS011;54366;51.980;5.856;2024-01-06T03:10:56;22.67;;;18.17;;
67528;SDS011;54366;51.980;5.856;2024-01-06T03:13:23;22.75;;;17.92;;
67528;SDS011;54366;51.980;5.856;2024-01-06T03:15:49;21.52;;;17.08;;
67528;SDS011;54366;51.980;5.856;2024-01-06T03:18:16;23.63;;;18.55;;
67528;SDS011;54366;51.980;5.856;2024-01-06T03:20:42;23.58;;;18.35;;
67528;SDS011;54366;51.980;5.856;2024-01-06T03:23:08;23.98;;;18.83;;
67528;SDS011;54366;51.980;5.856;2024-01-06T03:25:34;20.80;;;17.40;;
67528;SDS011;54366;51.980;5.856;2024-01-06T03:28:01;23.88;;;19.02;;
67528;SDS011;54366;51.980;5.856;2024-01-06T03:30:27;23.35;;;17.80;;
67528;SDS011;54366;51.980;5.856;2024-01-06T03:32:54;24.30;;;18.67;;
67528;SDS011;54366;51.980;5.856;2024-01-06T03:35:20;22.05;;;17.85;;
67528;SDS011;54366;51.980;5.856;2024-01-06T03:37:46;23.02;;;18.40;;
67528;SDS011;54366;51.980;5.856;2024-01-06T03:40:13;21.65;;;16.25;;
67528;SDS011;54366;51.980;5.856;2024-01-06T03:42:39;22.63;;;18.27;;
67528;SDS011;54366;51.980;5.856;2024-01-06T03:45:06;19.98;;;16.05;;
67528;SDS011;54366;51.980;5.856;2024-01-06T03:47:32;25.05;;;19.63;;
67528;SDS011;54366;51.980;5.856;2024-01-06T03:49:59;22.05;;;17.63;;
67528;SDS011;54366;51.980;5.856;2024-01-06T03:52:25;25.25;;;19.98;;
67528;SDS011;54366;51.980;5.856;2024-01-06T03:54:51;23.58;;;19.23;;
67528;SDS011;54366;51.980;5.856;2024-01-06T03:57:18;23.02;;;17.77;;
67528;SDS011;54366;51.980;5.856;2024-01-06T03:59:44;21.45;;;17.67;;
67528;SDS011;54366;51.980;5.856;2024-01-06T04:02:10;27.42;;;21.05;;
67528;SDS011;54366;51.980;5.856;2024-01-06T04:04:36;21.33;;;16.80;;
67528;SDS011;54366;51.980;5.856;2024-01-06T04:07:03;20.02;;;15.75;;
67528;SDS011;54366;51.980;5.856;2024-01-06T04:09:29;19.67;;;15.82;;
67528;SDS011;54366;51.980;5.856;2024-01-06T04:11:55;24.33;;;19.65;;
67528;SDS011;54366;51.980;5.856;2024-01-06T04:14:22;18.40;;;14.73;;
67528;SDS011;54366;51.980;5.856;2024-01-06T04:16:48;20.63;;;17.42;;
67528;SDS011;54366;51.980;5.856;2024-01-06T04:19:14;21.10;;;17.35;;
67528;SDS011;54366;51.980;5.856;2024-01-06T04:21:41;23.35;;;19.13;;
67528;SDS011;54366;51.980;5.856;2024-01-06T04:24:07;19.83;;;16.55;;
67528;SDS011;54366;51.980;5.856;2024-01-06T04:26:34;27.80;;;20.67;;
67528;SDS011;54366;51.980;5.856;2024-01-06T04:29:00;25.23;;;20.50;;
67528;SDS011;54366;51.980;5.856;2024-01-06T04:31:26;29.15;;;22.50;;
67528;SDS011;54366;51.980;5.856;2024-01-06T04:33:53;30.60;;;22.88;;
67528;SDS011;54366;51.980;5.856;2024-01-06T04:36:19;26.45;;;20.75;;
67528;SDS011;54366;51.980;5.856;2024-01-06T04:38:45;24.17;;;19.30;;
67528;SDS011;54366;51.980;5.856;2024-01-06T04:41:11;24.27;;;20.35;;
67528;SDS011;54366;51.980;5.856;2024-01-06T04:43:38;26.67;;;20.15;;
67528;SDS011;54366;51.980;5.856;2024-01-06T04:46:04;25.45;;;20.48;;
67528;SDS011;54366;51.980;5.856;2024-01-06T04:48:30;27.40;;;21.50;;
67528;SDS011;54366;51.980;5.856;2024-01-06T04:50:57;24.35;;;18.88;;
67528;SDS011;54366;51.980;5.856;2024-01-06T04:53:23;24.27;;;20.30;;
67528;SDS011;54366;51.980;5.856;2024-01-06T04:55:49;25.30;;;20.63;;
67528;SDS011;54366;51.980;5.856;2024-01-06T04:58:16;25.60;;;20.20;;
67528;SDS011;54366;51.980;5.856;2024-01-06T05:00:42;19.80;;;16.88;;
67528;SDS011;54366;51.980;5.856;2024-01-06T05:03:08;21.60;;;17.58;;
67528;SDS011;54366;51.980;5.856;2024-01-06T05:05:35;22.05;;;16.42;;
67528;SDS011;54366;51.980;5.856;2024-01-06T05:08:01;20.42;;;16.85;;
67528;SDS011;54366;51.980;5.856;2024-01-06T05:10:27;19.88;;;15.73;;
67528;SDS011;54366;51.980;5.856;2024-01-06T05:12:53;14.23;;;12.68;;
67528;SDS011;54366;51.980;5.856;2024-01-06T05:15:20;16.08;;;13.05;;
67528;SDS011;54366;51.980;5.856;2024-01-06T05:17:46;15.77;;;13.80;;
67528;SDS011;54366;51.980;5.856;2024-01-06T05:20:12;18.98;;;13.70;;
67528;SDS011;54366;51.980;5.856;2024-01-06T05:22:39;15.70;;;13.30;;
67528;SDS011;54366;51.980;5.856;2024-01-06T05:25:05;16.42;;;13.57;;
67528;SDS011;54366;51.980;5.856;2024-01-06T05:27:31;14.90;;;12.70;;
67528;SDS011;54366;51.980;5.856;2024-01-06T05:29:58;15.65;;;13.32;;
67528;SDS011;54366;51.980;5.856;2024-01-06T05:32:24;15.60;;;13.38;;
67528;SDS011;54366;51.980;5.856;2024-01-06T05:34:50;12.38;;;10.27;;
67528;SDS011;54366;51.980;5.856;2024-01-06T05:37:17;18.00;;;14.32;;
67528;SDS011;54366;51.980;5.856;2024-01-06T05:39:43;20.80;;;15.32;;
67528;SDS011;54366;51.980;5.856;2024-01-06T05:42:10;16.60;;;13.13;;
67528;SDS011;54366;51.980;5.856;2024-01-06T05:44:42;13.35;;;11.38;;
67528;SDS011;54366;51.980;5.856;2024-01-06T05:47:09;11.00;;;9.32;;
67528;SDS011;54366;51.980;5.856;2024-01-06T05:49:35;13.85;;;11.98;;
67528;SDS011;54366;51.980;5.856;2024-01-06T05:52:01;14.70;;;12.52;;
67528;SDS011;54366;51.980;5.856;2024-01-06T05:54:28;15.30;;;12.27;;
67528;SDS011;54366;51.980;5.856;2024-01-06T05:56:55;17.73;;;14.50;;
67528;SDS011;54366;51.980;5.856;2024-01-06T05:59:21;14.63;;;12.60;;
67528;SDS011;54366;51.980;5.856;2024-01-06T06:01:47;13.23;;;11.45;;
67528;SDS011;54366;51.980;5.856;2024-01-06T06:04:14;13.18;;;10.90;;
67528;SDS011;54366;51.980;5.856;2024-01-06T06:06:40;12.73;;;11.07;;
67528;SDS011;54366;51.980;5.856;2024-01-06T06:09:06;14.05;;;12.00;;
67528;SDS011;54366;51.980;5.856;2024-01-06T06:11:34;17.95;;;13.88;;
67528;SDS011;54366;51.980;5.856;2024-01-06T06:14:00;14.65;;;12.88;;
67528;SDS011;54366;51.980;5.856;2024-01-06T06:16:28;15.52;;;12.68;;
67528;SDS011;54366;51.980;5.856;2024-01-06T06:18:55;16.05;;;13.43;;
67528;SDS011;54366;51.980;5.856;2024-01-06T06:21:21;15.27;;;13.00;;
67528;SDS011;54366;51.980;5.856;2024-01-06T06:23:48;12.27;;;10.98;;
67528;SDS011;54366;51.980;5.856;2024-01-06T06:26:14;13.15;;;11.75;;
67528;SDS011;54366;51.980;5.856;2024-01-06T06:28:40;13.82;;;12.15;;
67528;SDS011;54366;51.980;5.856;2024-01-06T06:31:07;16.02;;;13.75;;
67528;SDS011;54366;51.980;5.856;2024-01-06T06:33:33;14.77;;;13.02;;
67528;SDS011;54366;51.980;5.856;2024-01-06T06:35:59;14.85;;;12.70;;
67528;SDS011;54366;51.980;5.856;2024-01-06T06:38:27;14.88;;;12.02;;
67528;SDS011;54366;51.980;5.856;2024-01-06T06:40:53;13.98;;;11.80;;
67528;SDS011;54366;51.980;5.856;2024-01-06T06:43:19;13.07;;;11.68;;
67528;SDS011;54366;51.980;5.856;2024-01-06T06:45:46;14.45;;;12.90;;
67528;SDS011;54366;51.980;5.856;2024-01-06T06:48:12;13.15;;;11.57;;
67528;SDS011;54366;51.980;5.856;2024-01-06T06:50:38;12.57;;;11.27;;
67528;SDS011;54366;51.980;5.856;2024-01-06T06:53:07;14.75;;;13.18;;
67528;SDS011;54366;51.980;5.856;2024-01-06T06:55:33;13.13;;;11.70;;
67528;SDS011;54366;51.980;5.856;2024-01-06T06:58:00;13.05;;;11.07;;
67528;SDS011;54366;51.980;5.856;2024-01-06T07:00:27;11.85;;;10.27;;
67528;SDS011;54366;51.980;5.856;2024-01-06T07:02:53;12.85;;;11.25;;
67528;SDS011;54366;51.980;5.856;2024-01-06T07:05:19;14.30;;;12.80;;
67528;SDS011;54366;51.980;5.856;2024-01-06T07:07:46;10.93;;;9.82;;
67528;SDS011;54366;51.980;5.856;2024-01-06T07:10:12;13.90;;;11.80;;
67528;SDS011;54366;51.980;5.856;2024-01-06T07:12:39;13.85;;;12.02;;
67528;SDS011;54366;51.980;5.856;2024-01-06T07:15:05;12.43;;;11.13;;
67528;SDS011;54366;51.980;5.856;2024-01-06T07:17:33;11.77;;;10.57;;
67528;SDS011;54366;51.980;5.856;2024-01-06T07:19:59;13.63;;;11.38;;
67528;SDS011;54366;51.980;5.856;2024-01-06T07:22:26;11.95;;;10.30;;
67528;SDS011;54366;51.980;5.856;2024-01-06T07:24:52;11.93;;;10.65;;
67528;SDS011;54366;51.980;5.856;2024-01-06T07:27:18;14.90;;;11.73;;
67528;SDS011;54366;51.980;5.856;2024-01-06T07:29:45;12.25;;;10.95;;
67528;SDS011;54366;51.980;5.856;2024-01-06T07:32:11;10.68;;;9.60;;
67528;SDS011;54366;51.980;5.856;2024-01-06T07:34:38;12.35;;;11.05;;
67528;SDS011;54366;51.980;5.856;2024-01-06T07:37:04;11.48;;;10.27;;
67528;SDS011;54366;51.980;5.856;2024-01-06T07:39:31;10.98;;;9.88;;
67528;SDS011;54366;51.980;5.856;2024-01-06T07:41:59;11.45;;;10.30;;
67528;SDS011;54366;51.980;5.856;2024-01-06T07:44:25;11.82;;;10.30;;
67528;SDS011;54366;51.980;5.856;2024-01-06T07:46:52;11.75;;;10.48;;
67528;SDS011;54366;51.980;5.856;2024-01-06T07:49:18;13.10;;;11.02;;
67528;SDS011;54366;51.980;5.856;2024-01-06T07:51:45;11.13;;;9.93;;
67528;SDS011;54366;51.980;5.856;2024-01-06T07:54:11;12.55;;;10.70;;
67528;SDS011;54366;51.980;5.856;2024-01-06T07:56:38;9.80;;;8.73;;
67528;SDS011;54366;51.980;5.856;2024-01-06T07:59:04;8.75;;;7.85;;
67528;SDS011;54366;51.980;5.856;2024-01-06T08:01:31;10.25;;;9.02;;
67528;SDS011;54366;51.980;5.856;2024-01-06T08:03:58;10.90;;;9.13;;
67528;SDS011;54366;51.980;5.856;2024-01-06T08:06:24;11.13;;;9.50;;
67528;SDS011;54366;51.980;5.856;2024-01-06T08:08:51;8.68;;;7.78;;
67528;SDS011;54366;51.980;5.856;2024-01-06T08:11:17;9.95;;;8.55;;
67528;SDS011;54366;51.980;5.856;2024-01-06T08:13:43;10.63;;;9.48;;
67528;SDS011;54366;51.980;5.856;2024-01-06T08:16:10;11.63;;;9.77;;
67528;SDS011;54366;51.980;5.856;2024-01-06T08:18:36;9.80;;;8.77;;
67528;SDS011;54366;51.980;5.856;2024-01-06T08:21:02;10.65;;;8.98;;
67528;SDS011;54366;51.980;5.856;2024-01-06T08:23:29;11.25;;;9.20;;
67528;SDS011;54366;51.980;5.856;2024-01-06T08:25:55;9.77;;;8.38;;
67528;SDS011;54366;51.980;5.856;2024-01-06T08:28:22;12.15;;;9.93;;
67528;SDS011;54366;51.980;5.856;2024-01-06T08:30:49;9.57;;;7.65;;
67528;SDS011;54366;51.980;5.856;2024-01-06T08:33:15;11.95;;;8.95;;
67528;SDS011;54366;51.980;5.856;2024-01-06T08:35:43;9.93;;;7.68;;
67528;SDS011;54366;51.980;5.856;2024-01-06T08:38:10;9.65;;;7.85;;
67528;SDS011;54366;51.980;5.856;2024-01-06T08:40:36;9.32;;;7.97;;
67528;SDS011;54366;51.980;5.856;2024-01-06T08:43:03;11.18;;;9.07;;
67528;SDS011;54366;51.980;5.856;2024-01-06T08:45:29;12.30;;;9.38;;
67528;SDS011;54366;51.980;5.856;2024-01-06T08:47:56;12.48;;;9.60;;
67528;SDS011;54366;51.980;5.856;2024-01-06T08:50:22;13.85;;;11.40;;
67528;SDS011;54366;51.980;5.856;2024-01-06T08:52:49;17.25;;;12.85;;
67528;SDS011;54366;51.980;5.856;2024-01-06T08:55:15;15.27;;;11.43;;
67528;SDS011;54366;51.980;5.856;2024-01-06T08:57:42;15.10;;;11.60;;
67528;SDS011;54366;51.980;5.856;2024-01-06T09:00:08;15.63;;;12.35;;
67528;SDS011;54366;51.980;5.856;2024-01-06T09:02:36;11.88;;;9.55;;
67528;SDS011;54366;51.980;5.856;2024-01-06T09:05:02;13.35;;;10.07;;
67528;SDS011;54366;51.980;5.856;2024-01-06T09:07:29;16.00;;;12.82;;
67528;SDS011;54366;51.980;5.856;2024-01-06T09:09:56;12.70;;;10.45;;
67528;SDS011;54366;51.980;5.856;2024-01-06T09:12:22;12.30;;;9.43;;
67528;SDS011;54366;51.980;5.856;2024-01-06T09:14:48;11.88;;;8.95;;
67528;SDS011;54366;51.980;5.856;2024-01-06T09:17:15;15.93;;;12.02;;
67528;SDS011;54366;51.980;5.856;2024-01-06T09:19:41;12.93;;;10.68;;
67528;SDS011;54366;51.980;5.856;2024-01-06T09:22:08;12.00;;;9.48;;
67528;SDS011;54366;51.980;5.856;2024-01-06T09:24:34;9.00;;;7.05;;
67528;SDS011;54366;51.980;5.856;2024-01-06T09:27:00;11.27;;;8.93;;
67528;SDS011;54366;51.980;5.856;2024-01-06T09:29:27;13.07;;;9.93;;
67528;SDS011;54366;51.980;5.856;2024-01-06T09:31:53;10.63;;;8.40;;
67528;SDS011;54366;51.980;5.856;2024-01-06T09:34:19;15.43;;;12.25;;
67528;SDS011;54366;51.980;5.856;2024-01-06T09:36:46;16.45;;;13.07;;
67528;SDS011;54366;51.980;5.856;2024-01-06T09:39:12;14.13;;;11.25;;
67528;SDS011;54366;51.980;5.856;2024-01-06T09:41:38;14.95;;;12.65;;
67528;SDS011;54366;51.980;5.856;2024-01-06T09:44:05;16.75;;;13.65;;
67528;SDS011;54366;51.980;5.856;2024-01-06T09:46:31;15.23;;;12.40;;
67528;SDS011;54366;51.980;5.856;2024-01-06T09:48:58;14.32;;;12.20;;
67528;SDS011;54366;51.980;5.856;2024-01-06T09:51:25;16.67;;;12.98;;
67528;SDS011;54366;51.980;5.856;2024-01-06T09:53:58;12.52;;;10.60;;
67528;SDS011;54366;51.980;5.856;2024-01-06T09:56:26;17.15;;;13.05;;
67528;SDS011;54366;51.980;5.856;2024-01-06T09:58:55;16.27;;;14.07;;
67528;SDS011;54366;51.980;5.856;2024-01-06T10:01:22;15.60;;;12.85;;
67528;SDS011;54366;51.980;5.856;2024-01-06T10:03:48;16.63;;;12.88;;
67528;SDS011;54366;51.980;5.856;2024-01-06T10:06:14;14.57;;;12.35;;
67528;SDS011;54366;51.980;5.856;2024-01-06T10:08:48;13.32;;;11.40;;
67528;SDS011;54366;51.980;5.856;2024-01-06T10:11:15;14.90;;;11.50;;
67528;SDS011;54366;51.980;5.856;2024-01-06T10:13:41;15.32;;;12.55;;
67528;SDS011;54366;51.980;5.856;2024-01-06T10:16:08;13.52;;;11.50;;
67528;SDS011;54366;51.980;5.856;2024-01-06T10:18:34;13.10;;;10.93;;
67528;SDS011;54366;51.980;5.856;2024-01-06T10:21:04;15.65;;;13.02;;
67528;SDS011;54366;51.980;5.856;2024-01-06T10:23:31;14.55;;;11.70;;
67528;SDS011;54366;51.980;5.856;2024-01-06T10:25:58;14.27;;;12.05;;
67528;SDS011;54366;51.980;5.856;2024-01-06T10:28:25;12.20;;;10.50;;
67528;SDS011;54366;51.980;5.856;2024-01-06T10:30:51;12.55;;;10.93;;
67528;SDS011;54366;51.980;5.856;2024-01-06T10:33:20;11.93;;;9.98;;
67528;SDS011;54366;51.980;5.856;2024-01-06T10:35:48;9.63;;;8.63;;
67528;SDS011;54366;51.980;5.856;2024-01-06T10:38:15;12.77;;;10.32;;
67528;SDS011;54366;51.980;5.856;2024-01-06T10:40:58;12.70;;;11.10;;
67528;SDS011;54366;51.980;5.856;2024-01-06T10:43:26;13.00;;;10.38;;
67528;SDS011;54366;51.980;5.856;2024-01-06T10:45:55;13.52;;;10.77;;
67528;SDS011;54366;51.980;5.856;2024-01-06T10:48:26;11.60;;;9.60;;
67528;SDS011;54366;51.980;5.856;2024-01-06T10:50:55;11.40;;;9.35;;
67528;SDS011;54366;51.980;5.856;2024-01-06T10:53:22;9.55;;;7.90;;
67528;SDS011;54366;51.980;5.856;2024-01-06T10:55:51;14.52;;;13.02;;
67528;SDS011;54366;51.980;5.856;2024-01-06T10:58:18;12.43;;;10.77;;
67528;SDS011;54366;51.980;5.856;2024-01-06T11:00:45;14.95;;;11.90;;
67528;SDS011;54366;51.980;5.856;2024-01-06T11:03:13;14.18;;;12.32;;
67528;SDS011;54366;51.980;5.856;2024-01-06T11:05:41;12.48;;;10.55;;
67528;SDS011;54366;51.980;5.856;2024-01-06T11:08:10;12.98;;;11.00;;
67528;SDS011;54366;51.980;5.856;2024-01-06T11:10:37;12.00;;;10.60;;
67528;SDS011;54366;51.980;5.856;2024-01-06T11:13:08;14.35;;;12.00;;
67528;SDS011;54366;51.980;5.856;2024-01-06T11:15:42;15.18;;;12.73;;
67528;SDS011;54366;51.980;5.856;2024-01-06T11:18:13;16.45;;;13.70;;
67528;SDS011;54366;51.980;5.856;2024-01-06T11:26:56;15.20;;;11.93;;
67528;SDS011;54366;51.980;5.856;2024-01-06T11:29:22;16.05;;;13.80;;
67528;SDS011;54366;51.980;5.856;2024-01-06T11:34:54;13.25;;;11.85;;
67528;SDS011;54366;51.980;5.856;2024-01-06T11:37:34;14.07;;;11.27;;
67528;SDS011;54366;51.980;5.856;2024-01-06T11:40:36;11.75;;;10.00;;
67528;SDS011;54366;51.980;5.856;2024-01-06T11:43:07;13.13;;;11.00;;
67528;SDS011;54366;51.980;5.856;2024-01-06T11:45:35;14.88;;;12.43;;
67528;SDS011;54366;51.980;5.856;2024-01-06T11:48:04;14.50;;;12.82;;
67528;SDS011;54366;51.980;5.856;2024-01-06T11:50:36;14.10;;;12.00;;
67528;SDS011;54366;51.980;5.856;2024-01-06T11:53:04;12.75;;;11.35;;
67528;SDS011;54366;51.980;5.856;2024-01-06T11:55:31;17.73;;;15.82;;
67528;SDS011;54366;51.980;5.856;2024-01-06T11:57:58;19.95;;;15.52;;
67528;SDS011;54366;51.980;5.856;2024-01-06T12:00:28;16.90;;;13.00;;
67528;SDS011;54366;51.980;5.856;2024-01-06T12:02:55;17.58;;;13.13;;
67528;SDS011;54366;51.980;5.856;2024-01-06T12:05:26;12.23;;;10.77;;
67528;SDS011;54366;51.980;5.856;2024-01-06T12:07:54;9.30;;;8.32;;
67528;SDS011;54366;51.980;5.856;2024-01-06T12:10:22;9.32;;;8.43;;
67528;SDS011;54366;51.980;5.856;2024-01-06T12:12:58;14.68;;;12.68;;
67528;SDS011;54366;51.980;5.856;2024-01-06T12:15:30;14.60;;;12.10;;
67528;SDS011;54366;51.980;5.856;2024-01-06T12:17:57;18.35;;;13.88;;
67528;SDS011;54366;51.980;5.856;2024-01-06T12:20:25;16.00;;;14.27;;
67528;SDS011;54366;51.980;5.856;2024-01-06T12:22:54;13.80;;;12.05;;
67528;SDS011;54366;51.980;5.856;2024-01-06T12:25:21;14.38;;;12.10;;
67528;SDS011;54366;51.980;5.856;2024-01-06T12:27:49;14.90;;;12.50;;
67528;SDS011;54366;51.980;5.856;2024-01-06T12:30:16;11.63;;;10.38;;
67528;SDS011;54366;51.980;5.856;2024-01-06T12:32:45;11.15;;;9.75;;
67528;SDS011;54366;51.980;5.856;2024-01-06T12:35:12;15.93;;;13.80;;
67528;SDS011;54366;51.980;5.856;2024-01-06T12:37:41;15.68;;;13.82;;
67528;SDS011;54366;51.980;5.856;2024-01-06T12:40:08;13.80;;;11.27;;
67528;SDS011;54366;51.980;5.856;2024-01-06T12:42:36;16.95;;;14.00;;
67528;SDS011;54366;51.980;5.856;2024-01-06T12:45:02;17.77;;;14.73;;
67528;SDS011;54366;51.980;5.856;2024-01-06T12:47:29;14.02;;;12.05;;
67528;SDS011;54366;51.980;5.856;2024-01-06T12:49:56;14.70;;;12.40;;
67528;SDS011;54366;51.980;5.856;2024-01-06T12:52:22;17.92;;;13.98;;
67528;SDS011;54366;51.980;5.856;2024-01-06T12:54:49;18.83;;;14.80;;
67528;SDS011;54366;51.980;5.856;2024-01-06T12:57:16;22.58;;;17.42;;
67528;SDS011;54366;51.980;5.856;2024-01-06T12:59:42;19.27;;;15.73;;
67528;SDS011;54366;51.980;5.856;2024-01-06T13:02:08;18.10;;;13.93;;
67528;SDS011;54366;51.980;5.856;2024-01-06T13:04:35;20.50;;;16.63;;
67528;SDS011;54366;51.980;5.856;2024-01-06T13:07:01;16.55;;;14.02;;
67528;SDS011;54366;51.980;5.856;2024-01-06T13:09:28;17.45;;;14.95;;
67528;SDS011;54366;51.980;5.856;2024-01-06T13:11:54;20.30;;;17.20;;
67528;SDS011;54366;51.980;5.856;2024-01-06T13:14:26;19.50;;;16.25;;
67528;SDS011;54366;51.980;5.856;2024-01-06T13:16:54;17.65;;;15.27;;
67528;SDS011;54366;51.980;5.856;2024-01-06T13:19:20;19.52;;;15.85;;
67528;SDS011;54366;51.980;5.856;2024-01-06T13:21:47;22.08;;;18.02;;
67528;SDS011;54366;51.980;5.856;2024-01-06T13:24:13;27.00;;;21.45;;
67528;SDS011;54366;51.980;5.856;2024-01-06T13:26:39;31.35;;;23.98;;
67528;SDS011;54366;51.980;5.856;2024-01-06T13:29:06;22.67;;;18.65;;
67528;SDS011;54366;51.980;5.856;2024-01-06T13:31:32;18.73;;;16.08;;
67528;SDS011;54366;51.980;5.856;2024-01-06T13:33:58;19.70;;;16.45;;
67528;SDS011;54366;51.980;5.856;2024-01-06T13:36:25;18.20;;;15.50;;
67528;SDS011;54366;51.980;5.856;2024-01-06T13:38:51;17.17;;;15.38;;
67528;SDS011;54366;51.980;5.856;2024-01-06T13:41:18;18.60;;;15.60;;
67528;SDS011;54366;51.980;5.856;2024-01-06T13:43:44;19.02;;;16.08;;
67528;SDS011;54366;51.980;5.856;2024-01-06T13:46:10;20.65;;;18.13;;
67528;SDS011;54366;51.980;5.856;2024-01-06T13:48:39;17.08;;;15.05;;
67528;SDS011;54366;51.980;5.856;2024-01-06T13:51:06;21.38;;;17.98;;
67528;SDS011;54366;51.980;5.856;2024-01-06T13:53:33;20.13;;;16.73;;
67528;SDS011;54366;51.980;5.856;2024-01-06T13:56:00;17.83;;;15.93;;
67528;SDS011;54366;51.980;5.856;2024-01-06T13:58:26;17.17;;;15.32;;
67528;SDS011;54366;51.980;5.856;2024-01-06T14:00:53;17.08;;;15.07;;
67528;SDS011;54366;51.980;5.856;2024-01-06T14:03:19;19.00;;;16.38;;
67528;SDS011;54366;51.980;5.856;2024-01-06T14:05:47;18.45;;;15.05;;
67528;SDS011;54366;51.980;5.856;2024-01-06T14:08:13;16.67;;;14.63;;
67528;SDS011;54366;51.980;5.856;2024-01-06T14:10:40;15.27;;;13.10;;
67528;SDS011;54366;51.980;5.856;2024-01-06T14:13:06;16.13;;;13.93;;
67528;SDS011;54366;51.980;5.856;2024-01-06T14:15:33;19.48;;;16.60;;
67528;SDS011;54366;51.980;5.856;2024-01-06T14:18:02;19.60;;;16.80;;
67528;SDS011;54366;51.980;5.856;2024-01-06T14:20:29;19.02;;;16.40;;
67528;SDS011;54366;51.980;5.856;2024-01-06T14:22:57;18.27;;;15.75;;
67528;SDS011;54366;51.980;5.856;2024-01-06T14:25:24;16.35;;;14.23;;
67528;SDS011;54366;51.980;5.856;2024-01-06T14:27:50;19.20;;;16.23;;
67528;SDS011;54366;51.980;5.856;2024-01-06T14:30:17;17.75;;;15.20;;